Time;durP1;ratioP1;P1;durP2;ratioP2;P2;SDS_P1;SDS_P2;PMS_P1;PMS_P2;Temp;Humidity;BMP_temperature;BMP_pressure;BME280_temperature;BME280_humidity;BME280_pressure;Samples;Min_cycle;Max_cycle;Signal;HPM_P1;HPM_P2
2022/12/02 00:00:21;;;;;;;49.92;25.60;;;;;;;8.38;100.00;96578.31;5068462;28;20091;-45
2022/12/02 00:02:49;;;;;;;49.63;24.35;;;;;;;8.24;100.00;96579.41;5067915;28;20091;-47
2022/12/02 00:05:32;;;;;;;49.70;24.85;;;;;;;8.26;100.00;96572.25;5068232;28;20088;-42
2022/12/02 00:08:10;;;;;;;50.25;26.23;;;;;;;7.88;100.00;96561.44;5064677;28;20080;-42
2022/12/02 00:10:38;;;;;;;53.13;25.42;;;;;;;8.06;100.00;96575.69;5069289;28;20094;-44
2022/12/02 00:13:12;;;;;;;51.72;24.25;;;;;;;8.05;100.00;96566.97;5068674;28;20079;-42
2022/12/02 00:15:42;;;;;;;56.10;26.02;;;;;;;8.05;100.00;96568.75;5062420;28;20080;-43
2022/12/02 00:18:11;;;;;;;;;;;;;;;8.20;100.00;96571.94;5068264;28;20076;-47
2022/12/02 00:20:41;;;;;;;58.83;25.55;;;;;;;8.18;100.00;96566.78;5067558;28;19970;-46
2022/12/02 00:23:09;;;;;;;62.67;27.13;;;;;;;8.11;100.00;96564.78;5066791;28;20076;-42
2022/12/02 00:25:37;;;;;;;59.42;25.80;;;;;;;8.36;100.00;96567.03;5066933;28;20084;-44
2022/12/02 00:28:06;;;;;;;57.70;26.77;;;;;;;8.06;100.00;96559.94;5067900;28;20075;-44
2022/12/02 00:30:34;;;;;;;61.58;27.73;;;;;;;8.13;100.00;96563.72;5062539;28;20083;-43
2022/12/02 00:33:02;;;;;;;66.30;29.15;;;;;;;8.14;100.00;96564.53;5067080;28;20087;-44
2022/12/02 00:35:30;;;;;;;57.65;27.48;;;;;;;7.99;100.00;96556.16;5067160;28;20083;-43
2022/12/02 00:38:00;;;;;;;64.28;30.35;;;;;;;8.31;100.00;96558.72;5065521;28;20083;-42
2022/12/02 00:40:28;;;;;;;64.82;29.95;;;;;;;8.38;100.00;96565.16;5067521;28;20092;-41
2022/12/02 00:46:30;;;;;;;59.85;28.20;;;;;;;8.37;100.00;96554.75;5066252;28;20079;-45
2022/12/02 00:48:34;;;;;;;61.08;28.55;;;;;;;7.97;100.00;96547.56;5065694;28;20088;-44
2022/12/02 00:51:03;;;;;;;58.33;27.00;;;;;;;8.17;100.00;96551.16;5066250;28;20080;-42
2022/12/02 00:53:33;;;;;;;56.78;27.15;;;;;;;8.45;100.00;96544.47;5064974;28;20071;-42
2022/12/02 00:56:01;;;;;;;71.63;30.13;;;;;;;8.15;100.00;96548.66;5066607;28;20064;-43
2022/12/02 00:58:29;;;;;;;60.42;29.67;;;;;;;8.45;100.00;96547.09;5066631;28;20227;-43
2022/12/02 01:00:58;;;;;;;62.58;28.83;;;;;;;8.32;100.00;96553.31;5067403;28;20468;-43
2022/12/02 01:03:26;;;;;;;62.60;29.70;;;;;;;8.44;100.00;96550.69;5066265;28;20091;-44
2022/12/02 01:05:54;;;;;;;61.35;28.65;;;;;;;8.33;100.00;96551.56;5067343;28;20527;-44
2022/12/02 01:08:26;;;;;;;60.65;28.85;;;;;;;8.76;100.00;96547.94;5065269;28;20080;-44
2022/12/02 01:10:56;;;;;;;59.38;29.30;;;;;;;8.29;100.00;96545.72;5064483;28;20410;-46
2022/12/02 01:13:25;;;;;;;;;;;;;;;8.24;100.00;96545.25;5066230;28;20575;-43
2022/12/02 01:15:54;;;;;;;61.13;27.00;;;;;;;8.51;100.00;96544.78;5062870;28;19955;-47
2022/12/02 01:18:22;;;;;;;59.30;27.20;;;;;;;8.52;100.00;96543.81;5066247;28;20171;-42
2022/12/02 01:20:50;;;;;;;65.25;28.38;;;;;;;8.37;100.00;96547.72;5066909;28;20092;-47
2022/12/02 01:23:18;;;;;;;56.08;27.00;;;;;;;8.39;100.00;96543.16;5067900;28;20087;-43
2022/12/02 01:25:47;;;;;;;57.30;27.13;;;;;;;8.40;100.00;96539.59;5066782;28;20083;-45
2022/12/02 01:28:17;;;;;;;60.53;26.52;;;;;;;7.90;100.00;96535.88;5063200;28;20481;-46
2022/12/02 01:30:46;;;;;;;64.10;29.50;;;;;;;8.11;100.00;96536.72;5062467;28;20084;-47
2022/12/02 01:33:15;;;;;;;60.63;27.40;;;;;;;8.09;100.00;96536.03;5064535;28;20095;-41
2022/12/02 01:35:43;;;;;;;55.80;27.55;;;;;;;8.21;100.00;96539.44;5067401;28;20072;-42
2022/12/02 01:38:11;;;;;;;58.10;28.60;;;;;;;8.06;100.00;96531.03;5065070;28;20091;-43
2022/12/02 01:40:39;;;;;;;61.63;28.42;;;;;;;8.04;100.00;96531.16;5066506;28;20789;-44
2022/12/02 01:43:08;;;;;;;59.40;27.88;;;;;;;8.48;100.00;96531.06;5066152;28;20102;-44
2022/12/02 01:45:37;;;;;;;59.40;27.35;;;;;;;8.53;100.00;96523.59;5066749;28;20076;-44
2022/12/02 01:48:06;;;;;;;68.03;29.43;;;;;;;8.62;100.00;96529.88;5063927;28;20091;-43
2022/12/02 01:50:34;;;;;;;62.63;27.67;;;;;;;8.29;100.00;96527.34;5064490;28;20448;-45
2022/12/02 01:53:03;;;;;;;61.13;28.35;;;;;;;8.10;100.00;96521.94;5066179;28;20095;-44
2022/12/02 01:55:31;;;;;;;61.47;27.65;;;;;;;8.15;100.00;96519.75;5066703;28;20076;-42
2022/12/02 01:58:00;;;;;;;62.35;28.38;;;;;;;8.15;100.00;96529.44;5065062;28;20087;-44
2022/12/02 02:00:28;;;;;;;63.63;28.05;;;;;;;8.01;100.00;96535.81;5066146;28;20527;-43
2022/12/02 02:02:58;;;;;;;69.60;28.90;;;;;;;7.89;100.00;96532.44;5065185;28;20040;-45
2022/12/02 02:05:28;;;;;;;56.05;26.02;;;;;;;8.12;100.00;96525.28;5066463;28;20084;-42
2022/12/02 02:07:58;;;;;;;48.10;23.63;;;;;;;7.96;100.00;96527.50;5063511;28;20516;-44
2022/12/02 02:10:27;;;;;;;51.75;23.60;;;;;;;7.97;100.00;96518.66;5063660;28;20060;-44
2022/12/02 02:12:56;;;;;;;47.17;24.05;;;;;;;8.31;100.00;96520.13;5061200;28;20065;-42
2022/12/02 02:15:24;;;;;;;48.00;23.00;;;;;;;8.04;100.00;96519.81;5066210;28;20091;-44
2022/12/02 02:17:54;;;;;;;48.53;23.83;;;;;;;8.22;100.00;96515.66;5065368;28;20083;-43
2022/12/02 02:20:30;;;;;;;48.55;23.70;;;;;;;8.42;100.00;96515.81;5063504;28;20083;-43
2022/12/02 02:23:21;;;;;;;45.72;23.00;;;;;;;7.96;100.00;96509.97;5065016;28;20080;-44
2022/12/02 02:25:50;;;;;;;;;;;;;;;8.62;100.00;96514.13;5067280;28;20076;-42
2022/12/02 02:28:19;;;;;;;42.88;21.35;;;;;;;8.66;100.00;96510.25;5065919;28;19967;-41
2022/12/02 02:30:47;;;;;;;48.83;22.95;;;;;;;8.51;100.00;96515.88;5066616;28;20091;-46
2022/12/02 02:33:16;;;;;;;49.13;22.08;;;;;;;8.74;100.00;96511.28;5058360;28;20087;-41
2022/12/02 02:35:45;;;;;;;50.85;23.02;;;;;;;8.67;100.00;96507.50;5065386;28;20087;-45
2022/12/02 02:38:15;;;;;;;46.55;23.63;;;;;;;8.92;100.00;96500.97;5065197;28;20524;-46
2022/12/02 02:40:45;;;;;;;45.58;23.88;;;;;;;8.56;100.00;96504.94;5065109;28;20083;-45
2022/12/02 02:43:14;;;;;;;51.33;24.35;;;;;;;8.55;100.00;96504.13;5063555;28;20068;-42
2022/12/02 02:45:43;;;;;;;48.00;24.10;;;;;;;8.62;100.00;96499.19;5065662;28;20087;-46
2022/12/02 02:48:13;;;;;;;47.00;23.35;;;;;;;8.91;100.00;96493.19;5065302;28;20092;-44
2022/12/02 02:50:43;;;;;;;52.25;24.15;;;;;;;8.87;100.00;96489.16;5065670;28;20072;-43
2022/12/02 02:53:12;;;;;;;46.30;23.00;;;;;;;8.90;100.00;96489.72;5062165;28;20084;-41
2022/12/02 02:55:41;;;;;;;50.65;24.67;;;;;;;9.11;100.00;96486.19;5063237;28;20068;-41
2022/12/02 02:58:17;;;;;;;47.72;23.35;;;;;;;8.83;100.00;96482.53;5069846;28;20550;-44
2022/12/02 03:00:47;;;;;;;46.88;22.65;;;;;;;8.94;100.00;96485.03;5064917;28;20091;-42
2022/12/02 03:03:16;;;;;;;;;;;;;;;9.02;100.00;96478.16;5068088;28;20072;-45
2022/12/02 03:05:45;;;;;;;50.90;23.45;;;;;;;9.22;100.00;96475.53;5070217;28;20354;-43
2022/12/02 03:08:14;;;;;;;47.53;23.15;;;;;;;9.07;100.00;96477.75;5068695;28;20085;-42
2022/12/02 03:10:42;;;;;;;55.13;25.83;;;;;;;9.45;100.00;96478.78;5069256;28;20080;-45
2022/12/02 03:13:12;;;;;;;61.67;26.65;;;;;;;9.24;100.00;96477.09;5069570;28;20071;-43
2022/12/02 03:15:41;;;;;;;62.33;27.67;;;;;;;9.59;100.00;96472.28;5069343;28;20083;-43
2022/12/02 03:18:10;;;;;;;60.55;27.70;;;;;;;9.66;100.00;96473.38;5064560;28;20079;-42
2022/12/02 03:20:38;;;;;;;61.00;28.15;;;;;;;8.79;100.00;96474.06;5069538;28;20465;-44
2022/12/02 03:23:06;;;;;;;65.75;28.45;;;;;;;8.74;100.00;96468.34;5069780;28;20091;-43
2022/12/02 03:25:35;;;;;;;67.57;29.92;;;;;;;8.68;100.00;96479.44;5068512;28;20459;-45
2022/12/02 03:28:03;;;;;;;67.32;30.20;;;;;;;8.33;100.00;96476.19;5069178;28;20080;-42
2022/12/02 03:30:33;;;;;;;64.63;29.58;;;;;;;8.54;100.00;96467.47;5069815;28;20084;-44
2022/12/02 03:33:02;;;;;;;69.30;29.02;;;;;;;8.36;100.00;96475.06;5063713;28;20087;-45
2022/12/02 03:35:30;;;;;;;61.90;27.55;;;;;;;8.29;100.00;96471.31;5068646;28;20076;-43
2022/12/02 03:37:59;;;;;;;66.97;28.63;;;;;;;8.49;100.00;96472.28;5068537;28;20072;-43
2022/12/02 03:40:27;;;;;;;61.58;28.55;;;;;;;8.49;100.00;96472.28;5068981;28;20091;-48
2022/12/02 03:42:55;;;;;;;69.72;28.15;;;;;;;8.44;100.00;96475.31;5069170;28;20068;-42
2022/12/02 03:45:24;;;;;;;67.90;28.17;;;;;;;8.67;100.00;96473.34;5068383;28;20507;-42
2022/12/02 03:47:54;;;;;;;66.07;28.00;;;;;;;8.64;100.00;96470.97;5067516;28;20099;-42
2022/12/02 03:50:22;;;;;;;67.75;29.65;;;;;;;8.78;100.00;96464.53;5067961;28;20079;-42
2022/12/02 03:52:51;;;;;;;65.45;28.80;;;;;;;8.79;100.00;96466.19;5068444;28;20644;-45
2022/12/02 03:55:19;;;;;;;68.25;28.95;;;;;;;8.76;100.00;96463.81;5068965;28;20068;-45
2022/12/02 03:57:47;;;;;;;66.88;27.65;;;;;;;8.76;100.00;96458.56;5067480;28;20076;-43
2022/12/02 04:00:16;;;;;;;64.13;28.98;;;;;;;8.71;100.00;96461.59;5065682;28;20080;-46
2022/12/02 04:02:45;;;;;;;59.97;28.55;;;;;;;8.87;100.00;96447.91;5067230;28;20088;-43
2022/12/02 04:05:14;;;;;;;72.90;29.95;;;;;;;8.65;100.00;96456.84;5060865;28;20091;-41
2022/12/02 04:07:43;;;;;;;63.55;28.83;;;;;;;8.76;100.00;96451.50;5066679;28;20520;-47
2022/12/02 04:10:12;;;;;;;67.85;29.33;;;;;;;8.89;100.00;96453.06;5067633;28;20094;-43
2022/12/02 04:12:40;;;;;;;69.25;29.10;;;;;;;8.98;100.00;96454.88;5068229;28;20083;-42
2022/12/02 04:15:09;;;;;;;67.30;29.83;;;;;;;8.98;100.00;96454.88;5068167;28;20067;-46
2022/12/02 04:17:37;;;;;;;61.95;27.17;;;;;;;8.84;100.00;96447.34;5067609;28;20076;-43
2022/12/02 04:20:07;;;;;;;64.88;29.00;;;;;;;8.99;100.00;96444.22;5068185;28;20072;-43
2022/12/02 04:22:37;;;;;;;69.03;29.35;;;;;;;9.10;100.00;96442.44;5066380;28;20063;-43
2022/12/02 04:25:06;;;;;;;65.45;29.42;;;;;;;9.14;100.00;96443.84;5068123;28;20072;-40
2022/12/02 04:27:34;;;;;;;67.47;28.45;;;;;;;9.08;100.00;96442.56;5068742;28;20076;-41
2022/12/02 04:30:03;;;;;;;65.68;28.85;;;;;;;9.03;100.00;96442.16;5066848;28;20075;-43
2022/12/02 04:32:32;;;;;;;58.75;29.15;;;;;;;9.01;100.00;96433.56;5066228;28;20070;-41
2022/12/02 04:35:00;;;;;;;63.25;27.35;;;;;;;8.89;100.00;96439.91;5066066;28;20590;-46
2022/12/02 04:37:28;;;;;;;60.95;29.40;;;;;;;8.84;100.00;96440.28;5063553;28;20526;-43
2022/12/02 04:39:58;;;;;;;60.70;27.65;;;;;;;9.15;100.00;96435.81;5064657;28;20083;-42
2022/12/02 04:42:26;;;;;;;56.23;26.27;;;;;;;8.90;100.00;96437.13;5065303;28;20406;-44
2022/12/02 04:44:55;;;;;;;55.78;27.27;;;;;;;8.71;100.00;96440.56;5066673;28;20100;-45
2022/12/02 04:47:23;;;;;;;59.53;26.90;;;;;;;8.75;100.00;96441.94;5067924;28;20088;-41
2022/12/02 04:49:51;;;;;;;57.92;27.30;;;;;;;8.84;100.00;96444.72;5065495;28;20099;-44
2022/12/02 04:52:20;;;;;;;58.45;27.02;;;;;;;9.48;100.00;96431.94;5065101;28;20115;-43
2022/12/02 04:54:48;;;;;;;60.65;28.20;;;;;;;9.09;100.00;96431.09;5067775;28;20072;-43
2022/12/02 04:57:18;;;;;;;55.40;27.15;;;;;;;8.72;100.00;96431.69;5064826;28;20076;-42
2022/12/02 04:59:46;;;;;;;61.10;27.63;;;;;;;8.63;100.00;96435.13;5066580;28;20455;-41
2022/12/02 05:02:14;;;;;;;58.33;26.40;;;;;;;8.72;100.00;96431.69;5066081;28;20087;-45
2022/12/02 05:04:43;;;;;;;63.60;29.17;;;;;;;8.87;100.00;96431.31;5060547;28;20075;-41
2022/12/02 05:07:11;;;;;;;58.30;27.38;;;;;;;8.85;100.00;96436.72;5065634;28;20088;-45
2022/12/02 05:09:39;;;;;;;60.67;27.88;;;;;;;8.76;100.00;96437.53;5066788;28;20087;-46
2022/12/02 05:12:08;;;;;;;61.75;29.38;;;;;;;8.68;100.00;96427.69;5066460;28;20080;-41
2022/12/02 05:14:37;;;;;;;60.33;27.75;;;;;;;8.68;100.00;96442.63;5064716;28;20080;-48
2022/12/02 05:17:05;;;;;;;53.38;27.25;;;;;;;8.88;100.00;96430.34;5067571;28;20083;-44
2022/12/02 05:19:34;;;;;;;56.17;27.38;;;;;;;9.00;100.00;96424.00;5066940;28;20063;-41
2022/12/02 05:22:02;;;;;;;58.38;28.45;;;;;;;9.21;100.00;96422.09;5066997;28;20118;-44
2022/12/02 05:24:30;;;;;;;56.65;27.25;;;;;;;9.23;100.00;96424.59;5067120;28;20658;-44
2022/12/02 05:26:58;;;;;;;59.90;27.85;;;;;;;8.89;100.00;96418.88;5063038;28;20076;-42
2022/12/02 05:29:26;;;;;;;61.88;28.77;;;;;;;8.65;100.00;96420.06;5066181;28;20080;-44
2022/12/02 05:31:56;;;;;;;52.17;27.70;;;;;;;8.67;100.00;96426.03;5063354;28;20087;-45
2022/12/02 05:34:24;;;;;;;59.13;26.00;;;;;;;8.66;100.00;96426.13;5066435;28;20076;-42
2022/12/02 05:36:53;;;;;;;59.45;27.48;;;;;;;8.52;100.00;96424.72;5064805;28;20084;-42
2022/12/02 05:39:21;;;;;;;59.65;28.45;;;;;;;8.77;100.00;96429.50;5066914;28;20536;-42
2022/12/02 05:41:49;;;;;;;60.03;27.45;;;;;;;8.27;100.00;96436.47;5066480;28;20072;-44
2022/12/02 05:44:22;;;;;;;59.38;27.63;;;;;;;7.84;100.00;96437.44;5066848;28;20091;-42
2022/12/02 05:46:51;;;;;;;62.53;27.38;;;;;;;8.25;100.00;96431.31;5062179;28;20072;-42
2022/12/02 05:49:22;;;;;;;56.50;26.70;;;;;;;8.20;100.00;96428.28;5065214;28;20084;-42
2022/12/02 05:51:54;;;;;;;63.25;26.83;;;;;;;8.12;100.00;96429.88;5055998;28;20147;-43
2022/12/02 05:54:24;;;;;;;58.38;27.00;;;;;;;8.03;100.00;96434.13;5062250;28;20091;-41
2022/12/02 05:56:53;;;;;;;62.13;28.08;;;;;;;8.03;100.00;96428.88;5066809;28;20560;-45
2022/12/02 05:59:22;;;;;;;62.58;29.08;;;;;;;8.01;100.00;96433.41;5063481;28;20095;-41
2022/12/02 06:01:52;;;;;;;59.85;27.30;;;;;;;7.81;100.00;96435.94;5061295;28;20091;-46
2022/12/02 06:04:25;;;;;;;62.25;29.17;;;;;;;8.11;100.00;96429.03;5063594;28;20099;-42
2022/12/02 06:06:55;;;;;;;60.70;27.45;;;;;;;8.13;100.00;96429.75;5064346;28;20075;-43
2022/12/02 06:09:25;;;;;;;65.13;29.08;;;;;;;8.20;100.00;96425.66;5064302;28;20103;-41
2022/12/02 06:11:53;;;;;;;62.58;29.73;;;;;;;8.00;100.00;96426.50;5066254;28;20700;-41
2022/12/02 06:14:23;;;;;;;64.88;28.80;;;;;;;8.10;100.00;96430.03;5063487;28;20080;-43
2022/12/02 06:16:52;;;;;;;65.90;30.67;;;;;;;8.02;100.00;96425.41;5057744;28;20079;-43
2022/12/02 06:19:27;;;;;;;65.05;29.48;;;;;;;7.93;100.00;96422.75;5060824;28;20088;-40
2022/12/02 06:22:01;;;;;;;66.88;29.33;;;;;;;8.25;100.00;96428.69;5066097;28;20076;-45
2022/12/02 06:24:31;;;;;;;63.67;30.17;;;;;;;8.03;100.00;96429.69;5063174;28;20076;-41
2022/12/02 06:27:01;;;;;;;62.07;28.83;;;;;;;7.91;100.00;96425.47;5063798;28;20821;-42
2022/12/02 06:29:30;;;;;;;66.38;30.25;;;;;;;7.96;100.00;96427.72;5063696;28;20076;-40
2022/12/02 06:31:59;;;;;;;63.15;28.35;;;;;;;8.11;100.00;96436.09;5067441;28;20083;-40
2022/12/02 06:34:38;;;;;;;66.13;29.45;;;;;;;8.08;100.00;96431.94;5069258;28;20089;-45
2022/12/02 06:37:14;;;;;;;64.40;28.95;;;;;;;8.07;100.00;96436.34;5067784;28;20693;-43
2022/12/02 06:39:42;;;;;;;62.75;28.67;;;;;;;8.19;100.00;96442.38;5070137;28;20425;-42
2022/12/02 06:42:32;;;;;;;69.05;30.42;;;;;;;8.35;100.00;96444.50;5064604;28;20052;-43
2022/12/02 06:45:04;;;;;;;67.10;30.52;;;;;;;8.21;100.00;96440.44;5068369;28;20064;-43
2022/12/02 06:47:47;;;;;;;63.38;28.33;;;;;;;7.92;100.00;96439.47;5071607;28;20420;-44
2022/12/02 06:50:24;;;;;;;62.95;27.45;;;;;;;7.85;100.00;96441.75;5070940;28;20513;-44
2022/12/02 06:52:53;;;;;;;61.38;27.45;;;;;;;7.83;100.00;96431.38;5067724;28;20077;-44
2022/12/02 06:55:30;;;;;;;64.57;29.17;;;;;;;8.06;100.00;96432.06;5070507;28;20088;-41
2022/12/02 06:58:02;;;;;;;67.20;29.17;;;;;;;8.09;100.00;96433.63;5067479;28;20083;-45
2022/12/02 07:00:31;;;;;;;64.45;28.73;;;;;;;8.32;100.00;96431.63;5064703;28;20143;-45
2022/12/02 07:03:00;;;;;;;61.17;30.57;;;;;;;8.40;100.00;96423.97;5063788;28;20080;-42
2022/12/02 07:05:30;;;;;;;67.18;27.67;;;;;;;7.85;100.00;96433.88;5062501;28;20064;-43
2022/12/02 07:08:00;;;;;;;71.00;30.52;;;;;;;7.94;100.00;96442.78;5066320;28;20080;-41
2022/12/02 07:10:28;;;;;;;65.15;26.92;;;;;;;8.02;100.00;96443.81;5067034;28;20467;-42
2022/12/02 07:12:58;;;;;;;63.92;27.25;;;;;;;8.06;100.00;96429.44;5064050;28;20079;-42
2022/12/02 07:15:28;;;;;;;60.40;26.83;;;;;;;7.89;100.00;96437.91;5066467;28;20068;-43
2022/12/02 07:17:58;;;;;;;60.10;28.20;;;;;;;8.14;100.00;96439.31;5067016;28;20083;-43
2022/12/02 07:20:32;;;;;;;57.88;26.88;;;;;;;8.25;100.00;96439.22;5071835;28;20107;-42
2022/12/02 07:23:01;;;;;;;61.42;27.40;;;;;;;8.17;100.00;96441.66;5072040;28;20080;-43
2022/12/02 07:25:33;;;;;;;65.97;30.20;;;;;;;8.27;100.00;96439.09;5071920;28;20075;-42
2022/12/02 07:28:03;;;;;;;61.38;29.10;;;;;;;8.19;100.00;96438.91;5067904;28;20087;-44
2022/12/02 07:30:33;;;;;;;66.30;30.73;;;;;;;8.24;100.00;96440.19;5071382;28;20059;-44
2022/12/02 07:33:01;;;;;;;63.80;30.33;;;;;;;8.50;100.00;96437.16;5071948;28;20090;-41
2022/12/02 07:35:31;;;;;;;69.60;30.42;;;;;;;8.27;100.00;96437.28;5071817;28;20072;-46
2022/12/02 07:38:00;;;;;;;61.20;29.67;;;;;;;8.22;100.00;96441.25;5071211;28;20067;-42
2022/12/02 07:40:28;;;;;;;62.88;27.70;;;;;;;8.23;100.00;96437.69;5071811;28;20068;-43
2022/12/02 07:42:56;;;;;;;64.15;29.70;;;;;;;7.86;100.00;96435.53;5070165;28;20091;-41
2022/12/02 07:45:25;;;;;;;67.78;31.35;;;;;;;7.96;100.00;96444.31;5070639;28;20095;-46
2022/12/02 07:47:53;;;;;;;67.15;30.33;;;;;;;8.20;100.00;96443.22;5069523;28;20465;-41
2022/12/02 07:50:21;;;;;;;68.75;29.50;;;;;;;8.29;100.00;96440.63;5071043;28;20091;-42
2022/12/02 07:52:51;;;;;;;67.85;28.80;;;;;;;7.77;100.00;96441.56;5071257;28;20092;-41
2022/12/02 07:55:19;;;;;;;65.35;28.77;;;;;;;8.02;100.00;96443.81;5071433;28;20084;-44
2022/12/02 07:57:53;;;;;;;66.32;30.75;;;;;;;8.14;100.00;96441.09;5071133;28;20117;-43
2022/12/02 08:00:23;;;;;;;68.15;30.75;;;;;;;8.08;100.00;96445.88;5069667;28;20071;-41
2022/12/02 08:02:51;;;;;;;66.45;31.98;;;;;;;7.77;100.00;96439.75;5071147;28;20492;-41
2022/12/02 08:05:20;;;;;;;64.35;28.33;;;;;;;7.65;100.00;96443.41;5067315;28;20610;-42
2022/12/02 08:07:49;;;;;;;68.10;29.63;;;;;;;7.63;100.00;96437.44;5070540;28;20084;-43
2022/12/02 08:10:18;;;;;;;68.00;29.60;;;;;;;8.17;100.00;96438.22;5065657;28;20140;-41
2022/12/02 08:12:47;;;;;;;64.00;28.13;;;;;;;8.19;100.00;96433.66;5071288;28;20092;-43
2022/12/02 08:15:15;;;;;;;60.15;27.08;;;;;;;7.96;100.00;96441.69;5069509;28;20467;-45
2022/12/02 08:17:44;;;;;;;62.42;26.40;;;;;;;7.84;100.00;96437.44;5061672;28;20481;-42
2022/12/02 08:20:13;;;;;;;57.33;27.17;;;;;;;8.18;100.00;96432.81;5064862;28;20076;-46
2022/12/02 08:22:41;;;;;;;54.65;26.33;;;;;;;8.09;100.00;96439.69;5064565;28;20033;-45
2022/12/02 08:25:10;;;;;;;59.33;26.77;;;;;;;8.11;100.00;96436.09;5069959;28;20095;-42
2022/12/02 08:27:39;;;;;;;60.20;26.65;;;;;;;8.25;100.00;96435.75;5064385;28;20083;-41
2022/12/02 08:30:16;;;;;;;57.95;26.33;;;;;;;8.30;100.00;96442.28;5069636;28;20072;-41
2022/12/02 08:32:44;;;;;;;59.63;27.13;;;;;;;7.99;100.00;96435.34;5070456;28;20118;-46
2022/12/02 08:35:12;;;;;;;59.83;26.85;;;;;;;7.97;100.00;96435.47;5065060;28;20084;-43
2022/12/02 08:37:41;;;;;;;66.13;27.38;;;;;;;8.06;100.00;96437.31;5068339;28;20072;-45
2022/12/02 08:40:10;;;;;;;58.75;26.35;;;;;;;8.06;100.00;96439.13;5069641;28;20084;-44
2022/12/02 08:42:41;;;;;;;57.78;28.73;;;;;;;7.89;100.00;96439.72;5070510;28;20087;-43
2022/12/02 08:45:10;;;;;;;60.67;27.67;;;;;;;7.98;100.00;96438.91;5070083;28;20542;-42
2022/12/02 08:47:38;;;;;;;64.65;28.00;;;;;;;7.98;100.00;96434.53;5069699;28;20072;-46
2022/12/02 08:50:08;;;;;;;59.63;27.83;;;;;;;7.86;100.00;96446.03;5069758;28;20098;-42
2022/12/02 08:52:36;;;;;;;61.42;29.33;;;;;;;7.72;100.00;96434.06;5068673;28;20079;-45
2022/12/02 08:55:05;;;;;;;64.18;27.55;;;;;;;7.81;100.00;96429.81;5069676;28;20098;-41
2022/12/02 08:57:34;;;;;;;60.08;28.23;;;;;;;7.86;100.00;96432.91;5068900;28;20075;-44
2022/12/02 09:00:04;;;;;;;59.17;27.15;;;;;;;8.12;100.00;96436.00;5070056;28;20060;-41
2022/12/02 09:02:32;;;;;;;;;;;;;;;8.36;100.00;96429.56;5066117;28;20102;-43
2022/12/02 09:05:01;;;;;;;72.60;29.73;;;;;;;7.97;100.00;96432.84;5069449;28;19960;-41
2022/12/02 09:07:29;;;;;;;70.85;30.65;;;;;;;7.50;100.00;96427.16;5067172;28;20080;-43
2022/12/02 09:09:57;;;;;;;75.22;28.95;;;;;;;7.93;100.00;96426.19;5066696;28;20444;-41
2022/12/02 09:12:26;;;;;;;70.90;31.13;;;;;;;8.09;100.00;96423.94;5068895;28;20084;-45
2022/12/02 09:14:55;;;;;;;67.93;30.17;;;;;;;7.61;100.00;96436.75;5069851;28;20080;-41
2022/12/02 09:17:25;;;;;;;68.28;28.17;;;;;;;7.69;100.00;96434.31;5070174;28;20473;-41
2022/12/02 09:19:53;;;;;;;63.75;28.05;;;;;;;7.74;100.00;96431.31;5067633;28;20525;-42
2022/12/02 09:22:21;;;;;;;64.93;28.70;;;;;;;8.17;100.00;96433.78;5068468;28;20072;-42
2022/12/02 09:24:49;;;;;;;62.30;28.90;;;;;;;7.85;100.00;96429.47;5070003;28;20782;-41
2022/12/02 09:27:18;;;;;;;61.33;27.92;;;;;;;8.28;100.00;96428.44;5064260;28;20084;-44
2022/12/02 09:29:47;;;;;;;58.58;27.38;;;;;;;7.76;100.00;96434.66;5068953;28;20194;-47
2022/12/02 09:32:16;;;;;;;57.45;27.08;;;;;;;8.43;100.00;96423.72;5067622;28;20079;-41
2022/12/02 09:34:45;;;;;;;61.47;28.35;;;;;;;7.74;100.00;96424.28;5069640;28;20528;-44
2022/12/02 09:37:14;;;;;;;59.28;27.13;;;;;;;8.21;100.00;96421.22;5069431;28;20543;-41
2022/12/02 09:39:42;;;;;;;58.67;26.95;;;;;;;8.01;100.00;96415.03;5067207;28;20444;-43
2022/12/02 09:42:11;;;;;;;55.47;26.08;;;;;;;7.67;100.00;96423.09;5069503;28;20064;-46
2022/12/02 09:44:41;;;;;;;53.45;24.35;;;;;;;7.56;100.00;96420.53;5068979;28;20463;-45
2022/12/02 09:47:10;;;;;;;60.65;26.98;;;;;;;7.89;100.00;96416.09;5069412;28;20072;-43
2022/12/02 09:49:39;;;;;;;54.58;24.83;;;;;;;7.68;100.00;96413.47;5069611;28;20064;-41
2022/12/02 09:52:15;;;;;;;54.28;24.30;;;;;;;7.88;100.00;96417.03;5069820;28;20558;-43
2022/12/02 09:54:49;;;;;;;55.85;25.05;;;;;;;8.34;100.00;96406.06;5069488;28;20479;-42
2022/12/02 09:57:19;;;;;;;55.60;24.55;;;;;;;7.89;100.00;96416.91;5067383;28;20088;-45
2022/12/02 09:59:47;;;;;;;50.80;24.52;;;;;;;8.23;100.00;96411.44;5065325;28;20087;-46
2022/12/02 10:02:22;;;;;;;54.90;25.45;;;;;;;7.79;100.00;96411.59;5069442;28;20068;-46
2022/12/02 10:04:51;;;;;;;50.53;24.70;;;;;;;8.36;100.00;96408.56;5068893;28;20068;-42
2022/12/02 10:07:21;;;;;;;55.55;25.98;;;;;;;8.28;100.00;96403.97;5068351;28;20075;-45
2022/12/02 10:09:49;;;;;;;50.13;24.80;;;;;;;8.32;100.00;96400.94;5069231;28;20064;-42
2022/12/02 10:12:18;;;;;;;48.60;24.17;;;;;;;8.18;100.00;96405.72;5069824;28;20553;-41
2022/12/02 10:14:49;;;;;;;51.45;25.33;;;;;;;8.16;100.00;96405.88;5069730;28;20098;-41
2022/12/02 10:17:19;;;;;;;53.47;25.48;;;;;;;7.85;100.00;96403.22;5063128;28;20069;-40
2022/12/02 10:19:48;;;;;;;54.45;24.55;;;;;;;7.78;100.00;96401.25;5065785;28;20075;-43
2022/12/02 10:22:18;;;;;;;47.95;23.30;;;;;;;8.05;100.00;96398.91;5065457;28;20088;-48
2022/12/02 10:24:49;;;;;;;59.00;27.10;;;;;;;8.19;100.00;96395.09;5069258;28;20091;-46
2022/12/02 10:27:25;;;;;;;50.65;24.42;;;;;;;8.44;100.00;96390.38;5069393;28;20084;-49
2022/12/02 10:29:53;;;;;;;58.85;26.48;;;;;;;8.22;100.00;96391.34;5068593;28;20076;-43
2022/12/02 10:32:24;;;;;;;53.47;26.58;;;;;;;9.04;100.00;96388.56;5069216;28;20107;-44
2022/12/02 10:35:03;;;;;;;53.65;24.98;;;;;;;8.93;100.00;96381.66;5067412;28;20123;-45
2022/12/02 10:37:33;;;;;;;54.20;25.80;;;;;;;9.14;100.00;96376.25;5066524;28;20087;-41
2022/12/02 10:40:15;;;;;;;53.28;25.05;;;;;;;9.40;100.00;96375.72;5068529;28;20120;-42
2022/12/02 10:42:44;;;;;;;55.28;25.90;;;;;;;9.47;100.00;96380.28;5064397;28;20444;-42
2022/12/02 10:45:18;;;;;;;52.42;24.33;;;;;;;9.10;100.00;96377.50;5068789;28;20485;-42
2022/12/02 10:47:47;;;;;;;47.42;23.98;;;;;;;9.54;100.00;96369.22;5069117;28;20082;-42
2022/12/02 10:50:18;;;;;;;48.22;24.42;;;;;;;9.68;100.00;96368.75;5069046;28;20084;-45
2022/12/02 10:52:48;;;;;;;48.05;23.80;;;;;;;9.35;100.00;96372.66;5068429;28;20084;-46
2022/12/02 10:55:19;;;;;;;49.83;24.92;;;;;;;9.73;100.00;96369.97;5068377;28;20745;-42
2022/12/02 10:57:49;;;;;;;49.50;26.15;;;;;;;9.75;100.00;96362.78;5068396;28;20558;-44
2022/12/02 11:00:20;;;;;;;48.00;24.50;;;;;;;9.00;100.00;96372.25;5065959;28;20080;-42
2022/12/02 11:02:51;;;;;;;46.28;23.60;;;;;;;8.82;100.00;96366.00;5068457;28;20263;-41
2022/12/02 11:05:21;;;;;;;45.17;22.70;;;;;;;9.30;100.00;96365.19;5068387;28;20525;-42
2022/12/02 11:07:54;;;;;;;47.38;24.73;;;;;;;8.50;100.00;96353.06;5065836;28;20072;-42
2022/12/02 11:10:26;;;;;;;48.22;24.60;;;;;;;9.31;100.00;96358.97;5067106;28;20072;-41
2022/12/02 11:13:06;;;;;;;53.88;28.23;;;;;;;9.24;100.00;96357.84;5068006;28;20543;-43
2022/12/02 11:15:40;;;;;;;54.15;25.65;;;;;;;9.33;100.00;96350.94;5063027;28;20534;-41
2022/12/02 11:18:10;;;;;;;46.78;24.83;;;;;;;9.41;100.00;96349.25;5071206;28;20088;-43
2022/12/02 11:20:43;;;;;;;48.43;24.10;;;;;;;9.27;100.00;96355.78;5070903;28;20079;-44
2022/12/02 11:23:19;;;;;;;48.42;23.95;;;;;;;8.48;100.00;96355.00;5070548;28;20543;-41
2022/12/02 11:25:57;;;;;;;46.40;24.05;;;;;;;8.91;100.00;96345.94;5070795;28;20091;-42
2022/12/02 11:29:16;;;;;;;49.65;24.17;;;;;;;9.02;100.00;96349.28;5070695;28;20079;-42
2022/12/02 11:32:00;;;;;;;48.40;23.23;;;;;;;8.98;100.00;96355.78;5070704;28;20083;-41
2022/12/02 11:34:43;;;;;;;47.30;23.90;;;;;;;8.91;100.00;96353.81;5071686;28;20084;-41